createdAt,value
2023-02-16T00:02:59.455Z,-62
2023-02-16T00:08:02.053Z,-63
2023-02-16T00:13:44.938Z,-63
2023-02-16T00:18:48.086Z,-62
2023-02-16T00:23:49.971Z,-63
2023-02-16T00:28:54.564Z,-63
2023-02-16T00:33:56.685Z,-61
2023-02-16T00:38:58.165Z,-61
2023-02-16T00:43:59.943Z,-63
2023-02-16T00:49:01.858Z,-63
2023-02-16T00:54:03.420Z,-63
2023-02-16T00:59:07.908Z,-63
2023-02-16T01:04:12.590Z,-63
2023-02-16T01:09:35.717Z,-63
2023-02-16T01:14:37.387Z,-63
2023-02-16T01:19:39.047Z,-63
2023-02-16T01:24:40.575Z,-63
2023-02-16T01:29:42.681Z,-63
2023-02-16T01:34:44.538Z,-63
2023-02-16T01:39:46.061Z,-63
2023-02-16T01:44:51.624Z,-63
2023-02-16T01:49:53.196Z,-63
2023-02-16T01:55:05.750Z,-63
2023-02-16T02:00:12.437Z,-63
2023-02-16T02:05:37.165Z,-64
2023-02-16T02:11:14.550Z,-64
2023-02-16T02:16:24.710Z,-63
2023-02-16T02:22:15.682Z,-63
2023-02-16T02:27:26.864Z,-62
2023-02-16T02:32:47.414Z,-64
2023-02-16T02:37:58.204Z,-63
2023-02-16T02:43:18.586Z,-63
2023-02-16T02:48:20.096Z,-63
2023-02-16T02:53:21.628Z,-63
2023-02-16T02:58:44.431Z,-64
2023-02-16T03:03:52.416Z,-61
2023-02-16T03:08:58.618Z,-64
2023-02-16T03:14:21.159Z,-63
2023-02-16T03:19:41.317Z,-64
2023-02-16T03:25:02.401Z,-62
2023-02-16T03:30:06.219Z,-63
2023-02-16T03:35:08.756Z,-63
2023-02-16T03:40:29.897Z,-61
2023-02-16T03:45:35.085Z,-59
2023-02-16T03:50:37.027Z,-63
2023-02-16T03:55:44.950Z,-63
2023-02-16T04:00:47.005Z,-63
2023-02-16T04:05:48.494Z,-63
2023-02-16T04:10:50.616Z,-63
2023-02-16T04:15:52.903Z,-63
2023-02-16T04:20:54.682Z,-62
2023-02-16T04:25:56.165Z,-62
2023-02-16T04:30:57.823Z,-62
2023-02-16T04:35:59.446Z,-61
2023-02-16T04:41:01.105Z,-62
2023-02-16T04:46:02.899Z,-62
2023-02-16T04:51:05.873Z,-61
2023-02-16T04:56:12.133Z,-61
2023-02-16T05:01:25.729Z,-63
2023-02-16T05:06:27.407Z,-64
2023-02-16T05:11:47.901Z,-63
2023-02-16T05:16:49.458Z,-63
2023-02-16T05:21:50.927Z,-64
2023-02-16T05:26:52.499Z,-62
2023-02-16T05:31:54.166Z,-62
2023-02-16T05:36:56.047Z,-63
2023-02-16T05:41:57.943Z,-63
2023-02-16T05:46:59.689Z,-63
2023-02-16T05:52:02.177Z,-60
2023-02-16T05:57:03.821Z,-60
2023-02-16T06:02:05.323Z,-61
2023-02-16T06:07:06.999Z,-62
2023-02-16T06:12:08.750Z,-62
2023-02-16T06:17:10.267Z,-62
2023-02-16T06:22:11.792Z,-63
2023-02-16T06:27:13.270Z,-60
2023-02-16T06:32:15.032Z,-61
2023-02-16T06:37:16.692Z,-61
2023-02-16T06:42:18.233Z,-60
2023-02-16T06:47:19.728Z,-60
2023-02-16T06:52:21.362Z,-60
2023-02-16T06:57:22.934Z,-59
2023-02-16T07:02:24.486Z,-60
2023-02-16T07:07:26.076Z,-62
2023-02-16T07:12:28.493Z,-62
2023-02-16T07:17:30.060Z,-60
2023-02-16T07:22:32.371Z,-61
2023-02-16T07:27:33.908Z,-59
2023-02-16T07:32:35.526Z,-58
2023-02-16T07:37:37.122Z,-58
2023-02-16T07:42:39.178Z,-59
2023-02-16T07:47:40.711Z,-58
2023-02-16T07:52:42.672Z,-62
2023-02-16T07:57:44.234Z,-59
2023-02-16T08:02:45.848Z,-58
2023-02-16T08:07:47.922Z,-59
2023-02-16T08:12:49.895Z,-59
2023-02-16T08:17:51.471Z,-59
2023-02-16T08:22:54.822Z,-59
2023-02-16T08:27:56.360Z,-58
2023-02-16T08:33:01.165Z,-59
2023-02-16T08:38:02.661Z,-61
2023-02-16T08:43:04.327Z,-62
2023-02-16T08:48:06.395Z,-62
2023-02-16T08:53:07.928Z,-60
2023-02-16T08:58:09.405Z,-60
2023-02-16T09:03:10.958Z,-61
2023-02-16T09:08:12.910Z,-60
2023-02-16T09:13:15.163Z,-59
2023-02-16T09:18:16.849Z,-57
2023-02-16T09:23:20.503Z,-61
2023-02-16T09:28:22.181Z,-63
2023-02-16T09:33:23.859Z,-59
2023-02-16T09:38:25.674Z,-61
2023-02-16T09:43:53.146Z,-60
2023-02-16T09:48:55.337Z,-60
2023-02-16T09:54:03.999Z,-59
2023-02-16T09:59:27.037Z,-59
2023-02-16T10:04:54.085Z,-59
2023-02-16T10:09:57.185Z,-59
2023-02-16T10:15:09.375Z,-59
2023-02-16T10:20:23.245Z,-61
2023-02-16T10:25:48.971Z,-62
2023-02-16T10:31:06.154Z,-62
2023-02-16T10:36:23.336Z,-61
2023-02-16T10:41:33.028Z,-61
2023-02-16T10:46:40.418Z,-60
2023-02-16T10:51:47.195Z,-61
2023-02-16T10:57:00.799Z,-60
2023-02-16T11:02:19.251Z,-60
2023-02-16T11:07:27.054Z,-59
2023-02-16T11:12:42.981Z,-60
2023-02-16T11:17:49.207Z,-59
2023-02-16T11:22:51.703Z,-59
2023-02-16T11:28:05.500Z,-59
2023-02-16T11:33:27.005Z,-60
2023-02-16T11:38:30.757Z,-59
2023-02-16T11:43:36.552Z,-59
2023-02-16T11:48:38.134Z,-61
2023-02-16T11:53:42.564Z,-59
2023-02-16T11:58:45.168Z,-56
2023-02-16T12:04:24.617Z,-59
2023-02-16T12:09:39.542Z,-57
2023-02-16T12:15:00.041Z,-58
2023-02-16T12:20:04.401Z,-58
2023-02-16T12:25:08.531Z,-58
2023-02-16T12:30:34.132Z,-59
2023-02-16T12:36:13.432Z,-58
2023-02-16T12:41:23.915Z,-58
2023-02-16T12:46:52.804Z,-59
2023-02-16T12:52:05.389Z,-59
2023-02-16T12:57:17.504Z,-59
2023-02-16T13:02:44.518Z,-59
2023-02-16T13:07:49.564Z,-58
2023-02-16T13:13:01.118Z,-59
2023-02-16T13:18:15.501Z,-58
2023-02-16T13:24:19.024Z,-61
2023-02-16T13:29:47.744Z,-61
2023-02-16T13:35:08.854Z,-60
2023-02-16T13:40:25.708Z,-61
2023-02-16T13:45:32.399Z,-62
2023-02-16T13:50:34.288Z,-62
2023-02-16T13:55:38.745Z,-62
2023-02-16T14:00:48.054Z,-60
2023-02-16T14:05:52.164Z,-61
2023-02-16T14:10:54.300Z,-59
2023-02-16T14:15:59.374Z,-60
2023-02-16T14:21:04.942Z,-60
2023-02-16T14:26:10.181Z,-59
2023-02-16T14:31:18.402Z,-67
2023-02-16T14:36:24.342Z,-60
2023-02-16T14:41:36.963Z,-62
2023-02-16T14:46:50.717Z,-59
2023-02-16T14:52:14.165Z,-60
2023-02-16T14:58:08.218Z,-59
2023-02-16T15:03:24.673Z,-60
2023-02-16T15:08:35.864Z,-58
2023-02-16T15:13:38.541Z,-58
2023-02-16T15:18:44.113Z,-60
2023-02-16T15:23:51.821Z,-58
2023-02-16T15:28:56.625Z,-58
2023-02-16T15:34:01.329Z,-58
2023-02-16T15:39:08.983Z,-61
2023-02-16T15:44:34.282Z,-60
2023-02-16T15:49:38.949Z,-60
2023-02-16T15:54:41.059Z,-60
2023-02-16T15:59:57.209Z,-60
2023-02-16T16:05:02.393Z,-62
2023-02-16T16:10:17.302Z,-62
2023-02-16T16:15:22.914Z,-61
2023-02-16T16:20:27.642Z,-63
2023-02-16T16:25:45.464Z,-63
2023-02-16T16:30:47.040Z,-60
2023-02-16T16:35:50.694Z,-63
2023-02-16T16:41:01.161Z,-63
2023-02-16T16:46:14.245Z,-63
2023-02-16T16:51:27.653Z,-60
2023-02-16T16:56:31.100Z,-61
2023-02-16T17:01:33.066Z,-61
2023-02-16T17:06:34.597Z,-61
2023-02-16T17:11:38.018Z,-59
2023-02-16T17:16:45.460Z,-58
2023-02-16T17:21:47.882Z,-59
2023-02-16T17:26:50.261Z,-59
2023-02-16T17:31:52.002Z,-58
2023-02-16T17:36:53.748Z,-58
2023-02-16T17:41:55.331Z,-58
2023-02-16T17:46:56.899Z,-57
2023-02-16T17:51:58.373Z,-58
2023-02-16T17:57:00.069Z,-58
2023-02-16T18:02:01.589Z,-61
2023-02-16T18:07:03.118Z,-60
2023-02-16T18:12:04.981Z,-60
2023-02-16T18:17:07.061Z,-61
2023-02-16T18:22:08.713Z,-60
2023-02-16T18:27:10.709Z,-61
2023-02-16T18:32:12.440Z,-60
2023-02-16T18:37:14.372Z,-59
2023-02-16T18:42:16.540Z,-60
2023-02-16T18:47:18.253Z,-60
2023-02-16T18:52:20.410Z,-60
2023-02-16T18:57:22.721Z,-60
2023-02-16T19:02:24.247Z,-62
2023-02-16T19:07:25.921Z,-62
2023-02-16T19:12:27.440Z,-61
2023-02-16T19:17:28.909Z,-60
2023-02-16T19:22:31.551Z,-62
2023-02-16T19:27:33.441Z,-60
2023-02-16T19:32:35.014Z,-59
2023-02-16T19:37:36.563Z,-59
2023-02-16T19:42:39.169Z,-60
2023-02-16T19:47:41.694Z,-60
2023-02-16T19:52:43.246Z,-61
2023-02-16T19:57:44.764Z,-63
2023-02-16T20:02:46.293Z,-60
2023-02-16T20:07:47.801Z,-63
2023-02-16T20:12:49.287Z,-61
2023-02-16T20:17:51.204Z,-62
2023-02-16T20:22:52.695Z,-60
2023-02-16T20:27:57.178Z,-61
2023-02-16T20:32:58.698Z,-61
2023-02-16T20:38:00.298Z,-62
2023-02-16T20:43:01.789Z,-61
2023-02-16T20:48:04.187Z,-60
2023-02-16T20:53:06.450Z,-61
2023-02-16T20:58:07.980Z,-59
2023-02-16T21:03:09.902Z,-59
2023-02-16T21:08:11.417Z,-59
2023-02-16T21:13:13.309Z,-59
2023-02-16T21:18:14.847Z,-59
2023-02-16T21:23:16.450Z,-59
2023-02-16T21:28:18.190Z,-59
2023-02-16T21:33:20.282Z,-59
2023-02-16T21:38:22.127Z,-59
2023-02-16T21:43:23.651Z,-58
2023-02-16T21:48:44.010Z,-59
2023-02-16T21:53:46.086Z,-60
2023-02-16T21:58:47.740Z,-61
2023-02-16T22:03:50.098Z,-61
2023-02-16T22:08:52.120Z,-61
2023-02-16T22:13:55.727Z,-59
2023-02-16T22:19:07.350Z,-60
2023-02-16T22:24:13.038Z,-61
2023-02-16T22:29:14.544Z,-62
2023-02-16T22:34:19.263Z,-60
2023-02-16T22:39:21.163Z,-60
2023-02-16T22:44:22.676Z,-59
2023-02-16T22:49:24.164Z,-61
2023-02-16T22:54:26.040Z,-60
2023-02-16T22:59:27.973Z,-61
2023-02-16T23:04:29.504Z,-61
2023-02-16T23:09:31.010Z,-58
2023-02-16T23:14:37.290Z,-62
2023-02-16T23:19:40.182Z,-61
2023-02-16T23:24:41.838Z,-63
2023-02-16T23:29:43.447Z,-63
2023-02-16T23:34:44.977Z,-61
2023-02-16T23:39:46.486Z,-60
2023-02-16T23:44:48.008Z,-60
2023-02-16T23:49:49.911Z,-60
2023-02-16T23:54:52.021Z,-60
2023-02-16T23:59:53.547Z,-59
